LNR032 LFMQ-LFRE
Flight info
| Callsign | LNR032 |
|---|---|
| Flight time | 1h 55m |
| Altitude | 28000 |
| Route | MTG DCT MTL/N0293F180 R161 RIVEK R66 POI G54 ABSIE/N0296F190 G54 LUGEN/N0294F180 R66 NTS |
| Aircraft | TBM8/L-SBDFGRWY/S |
Departure
| Time | 2026-04-17 05:15 |
|---|---|
| Airport | Le Castellet Airport (LFMQ) |
Arrival
| Time | 2026-04-17 07:10 |
|---|---|
| Airport | La Baule-Escoublac Airport (LFRE) |
| Time | Latitude | Longitude | Altitude | Speed | Heading |
|---|---|---|---|---|---|
| 2026-04-17 05:00 | 43.25132 | 5.78493 | 1408 ft | 0 kts | 307° |
| 2026-04-17 05:10 | 43.25142 | 5.78482 | 1410 ft | 5 kts | 352° |
| 2026-04-17 05:10 | 43.25146 | 5.78530 | 1412 ft | 6 kts | 121° |
| 2026-04-17 05:10 | 43.25126 | 5.78572 | 1416 ft | 4 kts | 126° |
| 2026-04-17 05:10 | 43.25110 | 5.78602 | 1412 ft | 4 kts | 125° |
| 2026-04-17 05:11 | 43.25110 | 5.78633 | 1414 ft | 0 kts | 39° |
| 2026-04-17 05:12 | 43.25137 | 5.78662 | 1408 ft | 11 kts | 37° |
| 2026-04-17 05:12 | 43.25146 | 5.78733 | 1409 ft | 12 kts | 126° |
| 2026-04-17 05:12 | 43.25075 | 5.78859 | 1408 ft | 21 kts | 129° |
| 2026-04-17 05:12 | 43.24974 | 5.79041 | 1409 ft | 21 kts | 127° |
| 2026-04-17 05:13 | 43.24910 | 5.79158 | 1415 ft | 15 kts | 126° |
| 2026-04-17 05:13 | 43.24831 | 5.79297 | 1408 ft | 17 kts | 135° |
| 2026-04-17 05:13 | 43.24771 | 5.79359 | 1409 ft | 6 kts | 53° |
| 2026-04-17 05:13 | 43.24802 | 5.79360 | 1409 ft | 11 kts | 296° |
| 2026-04-17 05:14 | 43.24931 | 5.79117 | 1409 ft | 51 kts | 307° |
| 2026-04-17 05:14 | 43.25119 | 5.78778 | 1408 ft | 83 kts | 307° |
| 2026-04-17 05:14 | 43.25632 | 5.77746 | 1632 ft | 111 kts | 304° |
| 2026-04-17 05:14 | 43.26095 | 5.76826 | 1951 ft | 122 kts | 306° |
| 2026-04-17 05:15 | 43.26445 | 5.76197 | 2154 ft | 130 kts | 308° |
| 2026-04-17 05:15 | 43.26856 | 5.75069 | 2504 ft | 137 kts | 275° |
| 2026-04-17 05:15 | 43.26647 | 5.73747 | 2815 ft | 150 kts | 249° |
| 2026-04-17 05:15 | 43.26575 | 5.72315 | 3109 ft | 159 kts | 287° |
| 2026-04-17 05:16 | 43.26906 | 5.70828 | 3449 ft | 164 kts | 286° |
| 2026-04-17 05:16 | 43.27112 | 5.69382 | 3886 ft | 161 kts | 281° |
| 2026-04-17 05:16 | 43.27255 | 5.68113 | 4285 ft | 159 kts | 281° |
| 2026-04-17 05:16 | 43.27433 | 5.66610 | 4687 ft | 159 kts | 280° |
| 2026-04-17 05:17 | 43.27616 | 5.65093 | 5080 ft | 162 kts | 280° |
| 2026-04-17 05:17 | 43.27811 | 5.63564 | 5496 ft | 164 kts | 279° |
| 2026-04-17 05:17 | 43.28079 | 5.62032 | 5900 ft | 167 kts | 293° |
| 2026-04-17 05:17 | 43.28583 | 5.60603 | 6292 ft | 169 kts | 293° |
| 2026-04-17 05:18 | 43.29067 | 5.59117 | 6685 ft | 171 kts | 292° |
| 2026-04-17 05:18 | 43.29556 | 5.57623 | 7065 ft | 172 kts | 293° |
| 2026-04-17 05:18 | 43.30053 | 5.56117 | 7459 ft | 173 kts | 293° |
| 2026-04-17 05:18 | 43.30544 | 5.54627 | 7844 ft | 174 kts | 293° |
| 2026-04-17 05:19 | 43.31045 | 5.53106 | 8241 ft | 174 kts | 293° |
| 2026-04-17 05:19 | 43.31543 | 5.51592 | 8654 ft | 174 kts | 293° |
| 2026-04-17 05:19 | 43.32044 | 5.50073 | 9051 ft | 175 kts | 294° |
| 2026-04-17 05:19 | 43.32546 | 5.48542 | 9451 ft | 176 kts | 293° |
| 2026-04-17 05:20 | 43.33047 | 5.47012 | 9865 ft | 175 kts | 294° |
| 2026-04-17 05:20 | 43.33552 | 5.45480 | 10232 ft | 177 kts | 295° |
| 2026-04-17 05:20 | 43.34055 | 5.43951 | 10568 ft | 179 kts | 295° |
| 2026-04-17 05:20 | 43.34567 | 5.42383 | 10915 ft | 180 kts | 295° |
| 2026-04-17 05:21 | 43.35081 | 5.40817 | 11275 ft | 180 kts | 295° |
| 2026-04-17 05:21 | 43.35592 | 5.39255 | 11651 ft | 179 kts | 296° |
| 2026-04-17 05:21 | 43.36108 | 5.37683 | 11991 ft | 181 kts | 296° |
| 2026-04-17 05:21 | 43.36629 | 5.36090 | 12336 ft | 183 kts | 296° |
| 2026-04-17 05:22 | 43.37151 | 5.34494 | 12701 ft | 183 kts | 296° |
| 2026-04-17 05:22 | 43.37656 | 5.32902 | 13039 ft | 185 kts | 291° |
| 2026-04-17 05:22 | 43.37810 | 5.31150 | 13409 ft | 186 kts | 274° |
| 2026-04-17 05:22 | 43.37867 | 5.29379 | 13769 ft | 186 kts | 276° |
| 2026-04-17 05:23 | 43.37946 | 5.27595 | 14102 ft | 187 kts | 276° |
| 2026-04-17 05:23 | 43.38015 | 5.25803 | 14412 ft | 188 kts | 276° |
| 2026-04-17 05:23 | 43.38083 | 5.23998 | 14729 ft | 189 kts | 276° |
| 2026-04-17 05:23 | 43.38152 | 5.22177 | 15048 ft | 190 kts | 276° |
| 2026-04-17 05:24 | 43.38220 | 5.20354 | 15365 ft | 191 kts | 276° |
| 2026-04-17 05:24 | 43.38289 | 5.18524 | 15680 ft | 192 kts | 276° |
| 2026-04-17 05:24 | 43.38357 | 5.16681 | 15998 ft | 193 kts | 276° |
| 2026-04-17 05:24 | 43.38425 | 5.14851 | 16306 ft | 194 kts | 276° |
| 2026-04-17 05:25 | 43.38493 | 5.12988 | 16627 ft | 195 kts | 276° |
| 2026-04-17 05:25 | 43.38679 | 5.11146 | 16942 ft | 193 kts | 292° |
| 2026-04-17 05:25 | 43.39355 | 5.09562 | 17261 ft | 192 kts | 313° |
| 2026-04-17 05:25 | 43.40408 | 5.08441 | 17574 ft | 193 kts | 334° |
| 2026-04-17 05:26 | 43.41694 | 5.07922 | 17877 ft | 194 kts | 350° |
| 2026-04-17 05:26 | 43.43034 | 5.07588 | 18123 ft | 199 kts | 349° |
| 2026-04-17 05:26 | 43.44444 | 5.07222 | 18131 ft | 213 kts | 350° |
| 2026-04-17 05:26 | 43.45949 | 5.06842 | 18139 ft | 225 kts | 350° |
| 2026-04-17 05:27 | 43.47519 | 5.06441 | 18162 ft | 232 kts | 350° |
| 2026-04-17 05:27 | 43.49129 | 5.06033 | 18166 ft | 238 kts | 350° |
| 2026-04-17 05:27 | 43.50750 | 5.05617 | 18165 ft | 242 kts | 350° |
| 2026-04-17 05:27 | 43.52421 | 5.05184 | 18163 ft | 246 kts | 350° |
| 2026-04-17 05:28 | 43.54113 | 5.04746 | 18163 ft | 249 kts | 350° |
| 2026-04-17 05:28 | 43.55825 | 5.04304 | 18157 ft | 251 kts | 350° |
| 2026-04-17 05:28 | 43.57531 | 5.03863 | 18154 ft | 253 kts | 350° |
| 2026-04-17 05:28 | 43.59284 | 5.03409 | 18148 ft | 254 kts | 350° |
| 2026-04-17 05:29 | 43.61026 | 5.02958 | 18148 ft | 255 kts | 350° |
| 2026-04-17 05:29 | 43.62771 | 5.02506 | 18148 ft | 256 kts | 350° |
| 2026-04-17 05:29 | 43.64503 | 5.02056 | 18148 ft | 256 kts | 350° |
| 2026-04-17 05:29 | 43.66257 | 5.01600 | 18146 ft | 257 kts | 350° |
| 2026-04-17 05:30 | 43.68013 | 5.01144 | 18147 ft | 257 kts | 350° |
| 2026-04-17 05:30 | 43.69773 | 5.00685 | 18148 ft | 257 kts | 350° |
| 2026-04-17 05:30 | 43.71541 | 5.00226 | 18144 ft | 257 kts | 350° |
| 2026-04-17 05:30 | 43.73284 | 4.99772 | 18148 ft | 258 kts | 349° |
| 2026-04-17 05:31 | 43.75047 | 4.99313 | 18146 ft | 258 kts | 349° |
| 2026-04-17 05:31 | 43.76818 | 4.98851 | 18146 ft | 258 kts | 349° |
| 2026-04-17 05:31 | 43.78587 | 4.98391 | 18147 ft | 258 kts | 349° |
| 2026-04-17 05:31 | 43.80355 | 4.97928 | 18148 ft | 258 kts | 349° |
| 2026-04-17 05:32 | 43.82123 | 4.97467 | 18149 ft | 258 kts | 349° |
| 2026-04-17 05:32 | 43.83867 | 4.97010 | 18148 ft | 258 kts | 349° |
| 2026-04-17 05:32 | 43.85632 | 4.96549 | 18146 ft | 258 kts | 349° |
| 2026-04-17 05:32 | 43.87399 | 4.96087 | 18147 ft | 258 kts | 349° |
| 2026-04-17 05:33 | 43.89167 | 4.95624 | 18149 ft | 258 kts | 349° |
| 2026-04-17 05:33 | 43.90932 | 4.95161 | 18149 ft | 258 kts | 349° |
| 2026-04-17 05:33 | 43.92699 | 4.94698 | 18148 ft | 258 kts | 349° |
| 2026-04-17 05:33 | 43.94468 | 4.94234 | 18148 ft | 258 kts | 349° |
| 2026-04-17 05:34 | 43.96236 | 4.93770 | 18149 ft | 258 kts | 349° |
| 2026-04-17 05:34 | 43.97986 | 4.93310 | 18148 ft | 258 kts | 349° |
| 2026-04-17 05:34 | 43.99753 | 4.92847 | 18149 ft | 258 kts | 349° |
| 2026-04-17 05:34 | 44.01521 | 4.92381 | 18149 ft | 258 kts | 349° |
| 2026-04-17 05:35 | 44.03289 | 4.91916 | 18148 ft | 258 kts | 349° |
| 2026-04-17 05:35 | 44.05054 | 4.91451 | 18146 ft | 258 kts | 349° |
| 2026-04-17 05:35 | 44.06822 | 4.90985 | 18146 ft | 258 kts | 349° |
| 2026-04-17 05:35 | 44.08565 | 4.90526 | 18147 ft | 258 kts | 349° |
| 2026-04-17 05:36 | 44.10333 | 4.90060 | 18147 ft | 258 kts | 349° |
| 2026-04-17 05:36 | 44.12106 | 4.89591 | 18148 ft | 258 kts | 349° |
| 2026-04-17 05:36 | 44.13874 | 4.89124 | 18149 ft | 259 kts | 349° |
| 2026-04-17 05:36 | 44.15646 | 4.88657 | 18147 ft | 259 kts | 349° |
| 2026-04-17 05:37 | 44.17418 | 4.88188 | 18149 ft | 259 kts | 349° |
| 2026-04-17 05:37 | 44.19186 | 4.87720 | 18149 ft | 259 kts | 349° |
| 2026-04-17 05:37 | 44.20959 | 4.87251 | 18148 ft | 259 kts | 349° |
| 2026-04-17 05:37 | 44.22733 | 4.86781 | 18147 ft | 259 kts | 349° |
| 2026-04-17 05:38 | 44.24506 | 4.86312 | 18147 ft | 259 kts | 349° |
| 2026-04-17 05:38 | 44.26275 | 4.85842 | 18147 ft | 259 kts | 349° |
| 2026-04-17 05:38 | 44.28026 | 4.85377 | 18149 ft | 259 kts | 349° |
| 2026-04-17 05:38 | 44.29796 | 4.84908 | 18157 ft | 259 kts | 349° |
| 2026-04-17 05:39 | 44.31574 | 4.84435 | 18156 ft | 259 kts | 349° |
| 2026-04-17 05:39 | 44.33351 | 4.83963 | 18156 ft | 259 kts | 349° |
| 2026-04-17 05:39 | 44.35123 | 4.83491 | 18155 ft | 259 kts | 349° |
| 2026-04-17 05:39 | 44.36879 | 4.83024 | 18160 ft | 259 kts | 349° |
| 2026-04-17 05:40 | 44.38654 | 4.82551 | 18158 ft | 259 kts | 349° |
| 2026-04-17 05:40 | 44.40431 | 4.82078 | 18158 ft | 260 kts | 349° |
| 2026-04-17 05:40 | 44.42208 | 4.81604 | 18157 ft | 260 kts | 349° |
| 2026-04-17 05:40 | 44.43983 | 4.81131 | 18165 ft | 260 kts | 349° |
| 2026-04-17 05:41 | 44.45761 | 4.80655 | 18164 ft | 260 kts | 349° |
| 2026-04-17 05:41 | 44.47537 | 4.80181 | 18166 ft | 260 kts | 349° |
| 2026-04-17 05:41 | 44.49318 | 4.79704 | 18163 ft | 260 kts | 349° |
| 2026-04-17 05:41 | 44.51074 | 4.79236 | 18163 ft | 260 kts | 349° |
| 2026-04-17 05:42 | 44.52865 | 4.78756 | 18164 ft | 260 kts | 349° |
| 2026-04-17 05:42 | 44.54639 | 4.78225 | 18151 ft | 259 kts | 342° |
| 2026-04-17 05:42 | 44.56224 | 4.77101 | 18153 ft | 258 kts | 326° |
| 2026-04-17 05:42 | 44.57583 | 4.75468 | 18164 ft | 257 kts | 318° |
| 2026-04-17 05:43 | 44.58915 | 4.73783 | 18164 ft | 257 kts | 319° |
| 2026-04-17 05:43 | 44.60255 | 4.72117 | 18178 ft | 257 kts | 319° |
| 2026-04-17 05:43 | 44.61592 | 4.70447 | 18179 ft | 257 kts | 319° |
| 2026-04-17 05:43 | 44.62911 | 4.68791 | 18176 ft | 257 kts | 319° |
| 2026-04-17 05:44 | 44.64244 | 4.67117 | 18176 ft | 257 kts | 319° |
| 2026-04-17 05:44 | 44.65579 | 4.65442 | 18177 ft | 257 kts | 319° |
| 2026-04-17 05:44 | 44.66915 | 4.63765 | 18176 ft | 257 kts | 319° |
| 2026-04-17 05:44 | 44.68248 | 4.62091 | 18184 ft | 257 kts | 319° |
| 2026-04-17 05:45 | 44.69584 | 4.60409 | 18184 ft | 258 kts | 319° |
| 2026-04-17 05:45 | 44.70923 | 4.58724 | 18185 ft | 258 kts | 319° |
| 2026-04-17 05:45 | 44.72244 | 4.57062 | 18186 ft | 258 kts | 319° |
| 2026-04-17 05:45 | 44.73583 | 4.55374 | 18186 ft | 257 kts | 319° |
| 2026-04-17 05:46 | 44.74915 | 4.53693 | 18190 ft | 257 kts | 319° |
| 2026-04-17 05:46 | 44.76251 | 4.52009 | 18198 ft | 257 kts | 319° |
| 2026-04-17 05:46 | 44.77582 | 4.50327 | 18197 ft | 257 kts | 319° |
| 2026-04-17 05:46 | 44.78918 | 4.48640 | 18195 ft | 257 kts | 319° |
| 2026-04-17 05:47 | 44.80249 | 4.46959 | 18196 ft | 257 kts | 319° |
| 2026-04-17 05:47 | 44.81563 | 4.45298 | 18199 ft | 257 kts | 319° |
| 2026-04-17 05:47 | 44.82894 | 4.43613 | 18195 ft | 257 kts | 319° |
| 2026-04-17 05:47 | 44.84222 | 4.41928 | 18210 ft | 257 kts | 319° |
| 2026-04-17 05:48 | 44.85553 | 4.40241 | 18205 ft | 257 kts | 319° |
| 2026-04-17 05:48 | 44.86885 | 4.38554 | 18207 ft | 257 kts | 319° |
| 2026-04-17 05:48 | 44.88217 | 4.36862 | 18208 ft | 257 kts | 319° |
| 2026-04-17 05:48 | 44.89548 | 4.35173 | 18208 ft | 257 kts | 319° |
| 2026-04-17 05:49 | 44.90884 | 4.33475 | 18206 ft | 258 kts | 319° |
| 2026-04-17 05:49 | 44.92200 | 4.31802 | 18216 ft | 257 kts | 318° |
| 2026-04-17 05:49 | 44.93529 | 4.30110 | 18217 ft | 257 kts | 318° |
| 2026-04-17 05:49 | 44.94862 | 4.28414 | 18217 ft | 257 kts | 318° |
| 2026-04-17 05:50 | 44.96193 | 4.26718 | 18228 ft | 257 kts | 318° |
| 2026-04-17 05:50 | 44.97525 | 4.25022 | 18225 ft | 257 kts | 318° |
| 2026-04-17 05:50 | 44.98855 | 4.23323 | 18225 ft | 257 kts | 318° |
| 2026-04-17 05:50 | 45.00170 | 4.21644 | 18234 ft | 257 kts | 318° |
| 2026-04-17 05:51 | 45.01501 | 4.19946 | 18233 ft | 257 kts | 318° |
| 2026-04-17 05:51 | 45.02832 | 4.18244 | 18234 ft | 257 kts | 318° |
| 2026-04-17 05:51 | 45.04158 | 4.16545 | 18232 ft | 257 kts | 318° |
| 2026-04-17 05:51 | 45.05488 | 4.14846 | 18231 ft | 257 kts | 318° |
| 2026-04-17 05:52 | 45.06814 | 4.13149 | 18239 ft | 257 kts | 318° |
| 2026-04-17 05:52 | 45.08142 | 4.11446 | 18242 ft | 257 kts | 318° |
| 2026-04-17 05:52 | 45.09470 | 4.09744 | 18238 ft | 258 kts | 318° |
| 2026-04-17 05:52 | 45.10800 | 4.08037 | 18240 ft | 257 kts | 318° |
| 2026-04-17 05:53 | 45.12108 | 4.06357 | 18249 ft | 258 kts | 318° |
| 2026-04-17 05:53 | 45.13452 | 4.04630 | 18242 ft | 258 kts | 318° |
| 2026-04-17 05:53 | 45.14767 | 4.02939 | 18241 ft | 258 kts | 318° |
| 2026-04-17 05:53 | 45.16096 | 4.01231 | 18245 ft | 258 kts | 317° |
| 2026-04-17 05:54 | 45.17428 | 3.99515 | 18238 ft | 258 kts | 317° |
| 2026-04-17 05:54 | 45.18756 | 3.97804 | 18240 ft | 258 kts | 318° |
| 2026-04-17 05:54 | 45.20086 | 3.96089 | 18239 ft | 258 kts | 318° |
| 2026-04-17 05:54 | 45.21413 | 3.94376 | 18239 ft | 258 kts | 317° |
| 2026-04-17 05:55 | 45.22740 | 3.92664 | 18239 ft | 258 kts | 317° |
| 2026-04-17 05:55 | 45.24067 | 3.90949 | 18235 ft | 258 kts | 317° |
| 2026-04-17 05:55 | 45.25378 | 3.89256 | 18235 ft | 258 kts | 317° |
| 2026-04-17 05:55 | 45.26706 | 3.87536 | 18238 ft | 258 kts | 317° |
| 2026-04-17 05:56 | 45.28034 | 3.85819 | 18239 ft | 258 kts | 317° |
| 2026-04-17 05:56 | 45.29365 | 3.84096 | 18235 ft | 258 kts | 317° |
| 2026-04-17 05:56 | 45.30685 | 3.82385 | 18238 ft | 258 kts | 317° |
| 2026-04-17 05:56 | 45.32010 | 3.80665 | 18236 ft | 258 kts | 317° |
| 2026-04-17 05:57 | 45.33336 | 3.78944 | 18233 ft | 258 kts | 317° |
| 2026-04-17 05:57 | 45.34658 | 3.77227 | 18232 ft | 258 kts | 317° |
| 2026-04-17 05:57 | 45.35969 | 3.75523 | 18235 ft | 258 kts | 317° |
| 2026-04-17 05:57 | 45.37297 | 3.73798 | 18233 ft | 258 kts | 317° |
| 2026-04-17 05:58 | 45.38630 | 3.72062 | 18233 ft | 258 kts | 317° |
| 2026-04-17 05:58 | 45.39952 | 3.70334 | 18236 ft | 258 kts | 317° |
| 2026-04-17 05:58 | 45.41262 | 3.68631 | 18229 ft | 258 kts | 317° |
| 2026-04-17 05:59 | 45.43898 | 3.65199 | 18232 ft | 258 kts | 317° |
| 2026-04-17 05:59 | 45.45235 | 3.63450 | 18232 ft | 258 kts | 317° |
| 2026-04-17 05:59 | 45.46558 | 3.61723 | 18235 ft | 258 kts | 317° |
| 2026-04-17 05:59 | 45.47864 | 3.60016 | 18230 ft | 258 kts | 317° |
| 2026-04-17 06:00 | 45.49185 | 3.58287 | 18231 ft | 258 kts | 317° |
| 2026-04-17 06:00 | 45.50510 | 3.56552 | 18234 ft | 257 kts | 317° |
| 2026-04-17 06:00 | 45.51814 | 3.54841 | 18236 ft | 257 kts | 317° |
| 2026-04-17 06:00 | 45.52684 | 3.53695 | 18237 ft | 258 kts | 317° |
| 2026-04-17 06:01 | 45.54008 | 3.51962 | 18231 ft | 258 kts | 317° |
| 2026-04-17 06:01 | 45.55332 | 3.50230 | 18227 ft | 258 kts | 317° |
| 2026-04-17 06:01 | 45.56655 | 3.48497 | 18224 ft | 258 kts | 317° |
| 2026-04-17 06:01 | 45.58406 | 3.46193 | 18227 ft | 258 kts | 317° |
| 2026-04-17 06:02 | 45.59302 | 3.45016 | 18227 ft | 258 kts | 317° |
| 2026-04-17 06:02 | 45.60624 | 3.43276 | 18225 ft | 259 kts | 317° |
| 2026-04-17 06:02 | 45.61930 | 3.41557 | 18229 ft | 258 kts | 317° |
| 2026-04-17 06:02 | 45.63258 | 3.39819 | 18229 ft | 258 kts | 317° |
| 2026-04-17 06:03 | 45.64581 | 3.38072 | 18228 ft | 258 kts | 317° |
| 2026-04-17 06:03 | 45.65900 | 3.36323 | 18224 ft | 258 kts | 317° |
| 2026-04-17 06:03 | 45.67225 | 3.34575 | 18228 ft | 258 kts | 317° |
| 2026-04-17 06:03 | 45.68530 | 3.32850 | 18224 ft | 258 kts | 317° |
| 2026-04-17 06:04 | 45.69848 | 3.31107 | 18225 ft | 258 kts | 317° |
| 2026-04-17 06:04 | 45.71171 | 3.29358 | 18229 ft | 258 kts | 317° |
| 2026-04-17 06:04 | 45.72493 | 3.27608 | 18227 ft | 258 kts | 317° |
| 2026-04-17 06:04 | 45.73811 | 3.25862 | 18228 ft | 259 kts | 316° |
| 2026-04-17 06:05 | 45.75136 | 3.24106 | 18233 ft | 258 kts | 316° |
| 2026-04-17 06:05 | 45.76459 | 3.22350 | 18229 ft | 259 kts | 316° |
| 2026-04-17 06:05 | 45.77774 | 3.20635 | 18240 ft | 259 kts | 320° |
| 2026-04-17 06:05 | 45.79348 | 3.19368 | 18252 ft | 262 kts | 338° |
| 2026-04-17 06:06 | 45.81140 | 3.18798 | 18246 ft | 265 kts | 351° |
| 2026-04-17 06:06 | 45.82972 | 3.18445 | 18236 ft | 265 kts | 350° |
| 2026-04-17 06:06 | 45.84772 | 3.17892 | 18211 ft | 262 kts | 336° |
| 2026-04-17 06:06 | 45.86196 | 3.16487 | 18215 ft | 258 kts | 314° |
| 2026-04-17 06:07 | 45.87380 | 3.14486 | 18233 ft | 256 kts | 309° |
| 2026-04-17 06:07 | 45.88594 | 3.12605 | 18241 ft | 257 kts | 315° |
| 2026-04-17 06:07 | 45.89926 | 3.10893 | 18244 ft | 257 kts | 319° |
| 2026-04-17 06:07 | 45.91285 | 3.09220 | 18233 ft | 257 kts | 318° |
| 2026-04-17 06:08 | 45.92616 | 3.07514 | 18230 ft | 257 kts | 317° |
| 2026-04-17 06:08 | 45.93945 | 3.05780 | 18229 ft | 257 kts | 317° |
| 2026-04-17 06:08 | 45.95281 | 3.04057 | 18226 ft | 257 kts | 317° |
| 2026-04-17 06:08 | 45.96612 | 3.02344 | 18226 ft | 257 kts | 317° |
| 2026-04-17 06:09 | 45.97947 | 3.00636 | 18225 ft | 256 kts | 317° |
| 2026-04-17 06:09 | 45.99272 | 2.98918 | 18222 ft | 257 kts | 317° |
| 2026-04-17 06:09 | 46.00583 | 2.97218 | 18226 ft | 256 kts | 317° |
| 2026-04-17 06:09 | 46.01911 | 2.95499 | 18222 ft | 257 kts | 317° |
| 2026-04-17 06:10 | 46.03212 | 2.93818 | 18224 ft | 256 kts | 317° |
| 2026-04-17 06:10 | 46.04513 | 2.92134 | 18224 ft | 257 kts | 317° |
| 2026-04-17 06:10 | 46.05844 | 2.90409 | 18217 ft | 257 kts | 317° |
| 2026-04-17 06:10 | 46.07173 | 2.88685 | 18215 ft | 257 kts | 317° |
| 2026-04-17 06:11 | 46.08501 | 2.86962 | 18213 ft | 257 kts | 317° |
| 2026-04-17 06:11 | 46.09828 | 2.85239 | 18218 ft | 256 kts | 317° |
| 2026-04-17 06:11 | 46.11137 | 2.83539 | 18219 ft | 256 kts | 317° |
| 2026-04-17 06:11 | 46.12459 | 2.81812 | 18218 ft | 257 kts | 317° |
| 2026-04-17 06:12 | 46.13790 | 2.80083 | 18230 ft | 257 kts | 317° |
| 2026-04-17 06:12 | 46.15119 | 2.78359 | 18221 ft | 257 kts | 317° |
| 2026-04-17 06:12 | 46.16449 | 2.76628 | 18220 ft | 257 kts | 317° |
| 2026-04-17 06:12 | 46.17782 | 2.74899 | 18219 ft | 257 kts | 317° |
| 2026-04-17 06:13 | 46.19110 | 2.73163 | 18220 ft | 257 kts | 316° |
| 2026-04-17 06:13 | 46.20438 | 2.71424 | 18217 ft | 257 kts | 316° |
| 2026-04-17 06:13 | 46.21754 | 2.69704 | 18219 ft | 257 kts | 317° |
| 2026-04-17 06:13 | 46.23088 | 2.67955 | 18220 ft | 259 kts | 316° |
| 2026-04-17 06:14 | 46.24431 | 2.66200 | 18218 ft | 261 kts | 317° |
| 2026-04-17 06:14 | 46.25770 | 2.64455 | 18221 ft | 262 kts | 317° |
| 2026-04-17 06:14 | 46.27124 | 2.62684 | 18219 ft | 263 kts | 317° |
| 2026-04-17 06:14 | 46.28484 | 2.60901 | 18220 ft | 264 kts | 317° |
| 2026-04-17 06:15 | 46.29848 | 2.59111 | 18220 ft | 264 kts | 317° |
| 2026-04-17 06:15 | 46.31211 | 2.57322 | 18214 ft | 265 kts | 316° |
| 2026-04-17 06:15 | 46.32574 | 2.55531 | 18214 ft | 265 kts | 317° |
| 2026-04-17 06:15 | 46.33942 | 2.53734 | 18217 ft | 265 kts | 317° |
| 2026-04-17 06:16 | 46.35310 | 2.51935 | 18219 ft | 266 kts | 316° |
| 2026-04-17 06:16 | 46.36571 | 2.50000 | 18203 ft | 263 kts | 304° |
| 2026-04-17 06:16 | 46.37388 | 2.47656 | 18207 ft | 261 kts | 289° |
| 2026-04-17 06:16 | 46.37752 | 2.45117 | 18218 ft | 260 kts | 278° |
| 2026-04-17 06:17 | 46.38008 | 2.42519 | 18220 ft | 261 kts | 279° |
| 2026-04-17 06:17 | 46.38285 | 2.39919 | 18212 ft | 261 kts | 279° |
| 2026-04-17 06:17 | 46.38557 | 2.37315 | 18208 ft | 262 kts | 279° |
| 2026-04-17 06:17 | 46.38826 | 2.34708 | 18211 ft | 262 kts | 279° |
| 2026-04-17 06:18 | 46.39096 | 2.32097 | 18210 ft | 262 kts | 279° |
| 2026-04-17 06:18 | 46.39366 | 2.29483 | 18209 ft | 262 kts | 279° |
| 2026-04-17 06:18 | 46.39635 | 2.26862 | 18210 ft | 262 kts | 278° |
| 2026-04-17 06:18 | 46.39899 | 2.24275 | 18208 ft | 262 kts | 278° |
| 2026-04-17 06:19 | 46.40167 | 2.21657 | 18207 ft | 263 kts | 279° |
| 2026-04-17 06:19 | 46.40435 | 2.19035 | 18207 ft | 262 kts | 278° |
| 2026-04-17 06:19 | 46.40701 | 2.16415 | 18208 ft | 263 kts | 278° |
| 2026-04-17 06:19 | 46.40969 | 2.13793 | 18206 ft | 263 kts | 278° |
| 2026-04-17 06:20 | 46.41234 | 2.11163 | 18208 ft | 263 kts | 278° |
| 2026-04-17 06:20 | 46.41499 | 2.08535 | 18203 ft | 263 kts | 278° |
| 2026-04-17 06:20 | 46.41766 | 2.05904 | 18203 ft | 263 kts | 278° |
| 2026-04-17 06:20 | 46.42027 | 2.03304 | 18206 ft | 263 kts | 278° |
| 2026-04-17 06:21 | 46.42291 | 2.00679 | 18214 ft | 263 kts | 278° |
| 2026-04-17 06:21 | 46.42553 | 1.98051 | 18207 ft | 262 kts | 278° |
| 2026-04-17 06:21 | 46.42818 | 1.95437 | 18205 ft | 262 kts | 278° |
| 2026-04-17 06:21 | 46.43077 | 1.92831 | 18205 ft | 261 kts | 278° |
| 2026-04-17 06:22 | 46.43334 | 1.90226 | 18200 ft | 261 kts | 278° |
| 2026-04-17 06:22 | 46.43589 | 1.87647 | 18198 ft | 261 kts | 278° |
| 2026-04-17 06:22 | 46.43847 | 1.85040 | 18198 ft | 260 kts | 278° |
| 2026-04-17 06:22 | 46.44104 | 1.82443 | 18199 ft | 260 kts | 278° |
| 2026-04-17 06:23 | 46.44365 | 1.79836 | 18200 ft | 260 kts | 278° |
| 2026-04-17 06:23 | 46.44616 | 1.77271 | 18200 ft | 260 kts | 278° |
| 2026-04-17 06:23 | 46.44868 | 1.74676 | 18192 ft | 260 kts | 278° |
| 2026-04-17 06:23 | 46.45121 | 1.72080 | 18193 ft | 260 kts | 278° |
| 2026-04-17 06:24 | 46.45376 | 1.69477 | 18194 ft | 260 kts | 278° |
| 2026-04-17 06:24 | 46.45627 | 1.66882 | 18195 ft | 260 kts | 278° |
| 2026-04-17 06:24 | 46.45879 | 1.64281 | 18196 ft | 260 kts | 277° |
| 2026-04-17 06:24 | 46.46126 | 1.61686 | 18196 ft | 260 kts | 278° |
| 2026-04-17 06:25 | 46.46381 | 1.59088 | 18190 ft | 259 kts | 278° |
| 2026-04-17 06:25 | 46.46634 | 1.56495 | 18189 ft | 259 kts | 277° |
| 2026-04-17 06:25 | 46.46882 | 1.53909 | 18189 ft | 258 kts | 277° |
| 2026-04-17 06:25 | 46.47125 | 1.51359 | 18187 ft | 258 kts | 277° |
| 2026-04-17 06:26 | 46.47372 | 1.48782 | 18189 ft | 258 kts | 277° |
| 2026-04-17 06:26 | 46.47619 | 1.46199 | 18189 ft | 258 kts | 277° |
| 2026-04-17 06:26 | 46.47868 | 1.43620 | 18188 ft | 258 kts | 278° |
| 2026-04-17 06:26 | 46.48115 | 1.41044 | 18189 ft | 258 kts | 277° |
| 2026-04-17 06:27 | 46.48362 | 1.38459 | 18190 ft | 258 kts | 277° |
| 2026-04-17 06:27 | 46.48606 | 1.35916 | 18190 ft | 257 kts | 277° |
| 2026-04-17 06:27 | 46.48850 | 1.33342 | 18192 ft | 257 kts | 277° |
| 2026-04-17 06:27 | 46.49095 | 1.30760 | 18192 ft | 257 kts | 277° |
| 2026-04-17 06:28 | 46.49338 | 1.28190 | 18194 ft | 257 kts | 277° |
| 2026-04-17 06:28 | 46.49582 | 1.25615 | 18193 ft | 257 kts | 277° |
| 2026-04-17 06:28 | 46.49822 | 1.23070 | 18195 ft | 257 kts | 277° |
| 2026-04-17 06:28 | 46.50063 | 1.20496 | 18195 ft | 257 kts | 278° |
| 2026-04-17 06:29 | 46.50307 | 1.17929 | 18193 ft | 257 kts | 278° |
| 2026-04-17 06:29 | 46.50546 | 1.15355 | 18192 ft | 256 kts | 278° |
| 2026-04-17 06:29 | 46.50785 | 1.12792 | 18193 ft | 256 kts | 278° |
| 2026-04-17 06:29 | 46.51023 | 1.10236 | 18193 ft | 256 kts | 278° |
| 2026-04-17 06:30 | 46.51261 | 1.07669 | 18195 ft | 256 kts | 278° |
| 2026-04-17 06:30 | 46.51498 | 1.05109 | 18194 ft | 256 kts | 278° |
| 2026-04-17 06:30 | 46.51734 | 1.02550 | 18195 ft | 255 kts | 278° |
| 2026-04-17 06:30 | 46.51965 | 1.00020 | 18194 ft | 255 kts | 278° |
| 2026-04-17 06:31 | 46.52198 | 0.97457 | 18190 ft | 255 kts | 278° |
| 2026-04-17 06:31 | 46.52429 | 0.94894 | 18193 ft | 255 kts | 278° |
| 2026-04-17 06:31 | 46.52661 | 0.92338 | 18193 ft | 255 kts | 278° |
| 2026-04-17 06:31 | 46.52893 | 0.89781 | 18193 ft | 255 kts | 278° |
| 2026-04-17 06:32 | 46.53123 | 0.87220 | 18193 ft | 256 kts | 278° |
| 2026-04-17 06:32 | 46.53350 | 0.84688 | 18196 ft | 255 kts | 278° |
| 2026-04-17 06:32 | 46.53582 | 0.82098 | 18193 ft | 255 kts | 277° |
| 2026-04-17 06:32 | 46.53809 | 0.79560 | 18193 ft | 255 kts | 278° |
| 2026-04-17 06:33 | 46.54039 | 0.77003 | 18198 ft | 255 kts | 278° |
| 2026-04-17 06:33 | 46.54266 | 0.74443 | 18199 ft | 255 kts | 278° |
| 2026-04-17 06:33 | 46.54497 | 0.71876 | 18199 ft | 255 kts | 278° |
| 2026-04-17 06:33 | 46.54726 | 0.69320 | 18197 ft | 255 kts | 278° |
| 2026-04-17 06:34 | 46.54951 | 0.66788 | 18197 ft | 255 kts | 278° |
| 2026-04-17 06:34 | 46.55180 | 0.64219 | 18198 ft | 255 kts | 278° |
| 2026-04-17 06:34 | 46.55407 | 0.61658 | 18199 ft | 255 kts | 278° |
| 2026-04-17 06:34 | 46.55633 | 0.59093 | 18201 ft | 255 kts | 278° |
| 2026-04-17 06:35 | 46.55860 | 0.56528 | 18201 ft | 255 kts | 278° |
| 2026-04-17 06:35 | 46.56082 | 0.54003 | 18201 ft | 255 kts | 278° |
| 2026-04-17 06:35 | 46.56306 | 0.51437 | 18201 ft | 255 kts | 278° |
| 2026-04-17 06:35 | 46.56527 | 0.48874 | 18200 ft | 255 kts | 278° |
| 2026-04-17 06:36 | 46.56746 | 0.46314 | 18200 ft | 255 kts | 278° |
| 2026-04-17 06:36 | 46.56966 | 0.43750 | 18203 ft | 256 kts | 278° |
| 2026-04-17 06:36 | 46.57186 | 0.41173 | 18200 ft | 256 kts | 278° |
| 2026-04-17 06:36 | 46.57406 | 0.38607 | 18201 ft | 256 kts | 278° |
| 2026-04-17 06:37 | 46.57625 | 0.36042 | 18200 ft | 255 kts | 278° |
| 2026-04-17 06:37 | 46.57842 | 0.33478 | 18200 ft | 255 kts | 278° |
| 2026-04-17 06:37 | 46.58059 | 0.30915 | 18201 ft | 255 kts | 278° |
| 2026-04-17 06:37 | 46.58178 | 0.28347 | 18123 ft | 257 kts | 271° |
| 2026-04-17 06:38 | 46.58166 | 0.25726 | 17798 ft | 267 kts | 271° |
| 2026-04-17 06:38 | 46.58163 | 0.22985 | 17479 ft | 274 kts | 272° |
| 2026-04-17 06:38 | 46.58174 | 0.20179 | 17160 ft | 279 kts | 272° |
| 2026-04-17 06:38 | 46.58179 | 0.17370 | 16845 ft | 282 kts | 271° |
| 2026-04-17 06:39 | 46.58177 | 0.14507 | 16527 ft | 284 kts | 271° |
| 2026-04-17 06:39 | 46.58174 | 0.11631 | 16215 ft | 285 kts | 271° |
| 2026-04-17 06:39 | 46.58171 | 0.08728 | 15901 ft | 286 kts | 271° |
| 2026-04-17 06:39 | 46.58165 | 0.05850 | 15593 ft | 286 kts | 271° |
| 2026-04-17 06:40 | 46.58161 | 0.02960 | 15287 ft | 285 kts | 271° |
| 2026-04-17 06:40 | 46.58156 | 0.00112 | 14987 ft | 285 kts | 272° |
| 2026-04-17 06:40 | 46.58149 | -0.02764 | 14684 ft | 284 kts | 272° |
| 2026-04-17 06:40 | 46.58142 | -0.05639 | 14384 ft | 283 kts | 272° |
| 2026-04-17 06:41 | 46.58134 | -0.08500 | 14092 ft | 283 kts | 272° |
| 2026-04-17 06:41 | 46.58125 | -0.11352 | 13770 ft | 282 kts | 272° |
| 2026-04-17 06:41 | 46.58118 | -0.14202 | 13439 ft | 281 kts | 272° |
| 2026-04-17 06:41 | 46.58109 | -0.17041 | 13110 ft | 280 kts | 272° |
| 2026-04-17 06:42 | 46.58096 | -0.19840 | 12787 ft | 279 kts | 272° |
| 2026-04-17 06:42 | 46.58086 | -0.22657 | 12467 ft | 278 kts | 272° |
| 2026-04-17 06:42 | 46.58081 | -0.25446 | 12157 ft | 277 kts | 273° |
| 2026-04-17 06:42 | 46.58152 | -0.28234 | 11844 ft | 276 kts | 274° |
| 2026-04-17 06:43 | 46.58373 | -0.31001 | 11579 ft | 274 kts | 290° |
| 2026-04-17 06:43 | 46.59356 | -0.33356 | 11325 ft | 273 kts | 308° |
| 2026-04-17 06:43 | 46.60469 | -0.35560 | 10999 ft | 273 kts | 302° |
| 2026-04-17 06:43 | 46.61375 | -0.37995 | 10714 ft | 273 kts | 297° |
| 2026-04-17 06:44 | 46.62182 | -0.40437 | 10697 ft | 263 kts | 296° |
| 2026-04-17 06:44 | 46.62949 | -0.42813 | 10698 ft | 257 kts | 296° |
| 2026-04-17 06:44 | 46.63753 | -0.45115 | 10699 ft | 252 kts | 298° |
| 2026-04-17 06:44 | 46.64573 | -0.47351 | 10699 ft | 249 kts | 298° |
| 2026-04-17 06:45 | 46.65373 | -0.49581 | 10698 ft | 247 kts | 297° |
| 2026-04-17 06:45 | 46.66156 | -0.51798 | 10698 ft | 246 kts | 297° |
| 2026-04-17 06:45 | 46.66939 | -0.54001 | 10698 ft | 245 kts | 298° |
| 2026-04-17 06:45 | 46.67724 | -0.56210 | 10700 ft | 244 kts | 297° |
| 2026-04-17 06:46 | 46.68495 | -0.58385 | 10698 ft | 244 kts | 297° |
| 2026-04-17 06:46 | 46.69269 | -0.60574 | 10699 ft | 243 kts | 297° |
| 2026-04-17 06:46 | 46.70046 | -0.62768 | 10697 ft | 243 kts | 297° |
| 2026-04-17 06:46 | 46.70824 | -0.64971 | 10698 ft | 243 kts | 297° |
| 2026-04-17 06:47 | 46.71596 | -0.67157 | 10699 ft | 243 kts | 297° |
| 2026-04-17 06:47 | 46.72371 | -0.69349 | 10697 ft | 243 kts | 297° |
| 2026-04-17 06:47 | 46.73135 | -0.71518 | 10701 ft | 243 kts | 297° |
| 2026-04-17 06:47 | 46.73906 | -0.73709 | 10702 ft | 243 kts | 297° |
| 2026-04-17 06:48 | 46.74677 | -0.75895 | 10702 ft | 243 kts | 297° |
| 2026-04-17 06:48 | 46.75190 | -0.77355 | 10701 ft | 243 kts | 297° |
| 2026-04-17 06:48 | 46.75958 | -0.79541 | 10702 ft | 242 kts | 297° |
| 2026-04-17 06:48 | 46.76729 | -0.81735 | 10703 ft | 243 kts | 297° |
| 2026-04-17 06:49 | 46.77500 | -0.83923 | 10703 ft | 242 kts | 297° |
| 2026-04-17 06:49 | 46.78268 | -0.86117 | 10702 ft | 242 kts | 297° |
| 2026-04-17 06:49 | 46.79026 | -0.88284 | 10701 ft | 242 kts | 297° |
| 2026-04-17 06:49 | 46.79791 | -0.90470 | 10700 ft | 242 kts | 297° |
| 2026-04-17 06:50 | 46.80561 | -0.92659 | 10700 ft | 242 kts | 297° |
| 2026-04-17 06:50 | 46.81326 | -0.94843 | 10703 ft | 241 kts | 297° |
| 2026-04-17 06:50 | 46.82087 | -0.97032 | 10704 ft | 241 kts | 297° |
| 2026-04-17 06:50 | 46.82849 | -0.99223 | 10705 ft | 241 kts | 297° |
| 2026-04-17 06:51 | 46.83610 | -1.01405 | 10705 ft | 241 kts | 297° |
| 2026-04-17 06:51 | 46.84361 | -1.03562 | 10703 ft | 241 kts | 297° |
| 2026-04-17 06:51 | 46.85121 | -1.05744 | 10703 ft | 241 kts | 297° |
| 2026-04-17 06:51 | 46.85881 | -1.07931 | 10704 ft | 241 kts | 297° |
| 2026-04-17 06:52 | 46.86642 | -1.10119 | 10702 ft | 241 kts | 297° |
| 2026-04-17 06:52 | 46.87400 | -1.12304 | 10702 ft | 241 kts | 297° |
| 2026-04-17 06:52 | 46.88161 | -1.14493 | 10703 ft | 241 kts | 297° |
| 2026-04-17 06:52 | 46.88915 | -1.16671 | 10703 ft | 241 kts | 297° |
| 2026-04-17 06:53 | 46.89666 | -1.18839 | 10703 ft | 241 kts | 297° |
| 2026-04-17 06:53 | 46.90426 | -1.21034 | 10703 ft | 241 kts | 297° |
| 2026-04-17 06:53 | 46.91182 | -1.23220 | 10704 ft | 241 kts | 296° |
| 2026-04-17 06:53 | 46.91939 | -1.25412 | 10701 ft | 241 kts | 296° |
| 2026-04-17 06:54 | 46.92695 | -1.27602 | 10702 ft | 241 kts | 296° |
| 2026-04-17 06:54 | 46.93450 | -1.29792 | 10700 ft | 241 kts | 296° |
| 2026-04-17 06:54 | 46.94204 | -1.31981 | 10693 ft | 241 kts | 296° |
| 2026-04-17 06:54 | 46.94959 | -1.34172 | 10685 ft | 241 kts | 296° |
| 2026-04-17 06:55 | 46.95704 | -1.36335 | 10683 ft | 241 kts | 296° |
| 2026-04-17 06:55 | 46.96458 | -1.38531 | 10672 ft | 241 kts | 296° |
| 2026-04-17 06:55 | 46.97215 | -1.40736 | 10664 ft | 241 kts | 296° |
| 2026-04-17 06:55 | 46.97971 | -1.42938 | 10658 ft | 241 kts | 296° |
| 2026-04-17 06:56 | 46.98718 | -1.45116 | 10648 ft | 241 kts | 296° |
| 2026-04-17 06:56 | 46.99474 | -1.47324 | 10640 ft | 242 kts | 296° |
| 2026-04-17 06:56 | 47.00227 | -1.49520 | 10581 ft | 244 kts | 296° |
| 2026-04-17 06:56 | 47.01005 | -1.51773 | 10383 ft | 249 kts | 297° |
| 2026-04-17 06:57 | 47.01792 | -1.54034 | 10185 ft | 250 kts | 296° |
| 2026-04-17 06:57 | 47.02568 | -1.56339 | 9972 ft | 254 kts | 296° |
| 2026-04-17 06:57 | 47.03364 | -1.58669 | 9753 ft | 256 kts | 296° |
| 2026-04-17 06:57 | 47.04160 | -1.60981 | 9536 ft | 258 kts | 296° |
| 2026-04-17 06:58 | 47.04964 | -1.63339 | 9318 ft | 259 kts | 296° |
| 2026-04-17 06:58 | 47.05767 | -1.65708 | 9112 ft | 259 kts | 296° |
| 2026-04-17 06:58 | 47.06573 | -1.68083 | 8886 ft | 260 kts | 296° |
| 2026-04-17 06:58 | 47.07381 | -1.70460 | 8648 ft | 260 kts | 296° |
| 2026-04-17 06:59 | 47.08195 | -1.72831 | 8333 ft | 260 kts | 296° |
| 2026-04-17 06:59 | 47.08987 | -1.75164 | 8022 ft | 257 kts | 295° |
| 2026-04-17 06:59 | 47.09769 | -1.77518 | 7710 ft | 255 kts | 295° |
| 2026-04-17 06:59 | 47.10552 | -1.79862 | 7403 ft | 254 kts | 295° |
| 2026-04-17 07:00 | 47.11345 | -1.82180 | 7093 ft | 253 kts | 296° |
| 2026-04-17 07:00 | 47.12145 | -1.84472 | 6791 ft | 252 kts | 295° |
| 2026-04-17 07:00 | 47.12907 | -1.86799 | 6479 ft | 250 kts | 294° |
| 2026-04-17 07:00 | 47.13653 | -1.89037 | 6160 ft | 244 kts | 294° |
| 2026-04-17 07:01 | 47.14396 | -1.91263 | 5846 ft | 241 kts | 294° |
| 2026-04-17 07:01 | 47.15130 | -1.93463 | 5633 ft | 240 kts | 294° |
| 2026-04-17 07:01 | 47.15873 | -1.95665 | 5420 ft | 242 kts | 295° |
| 2026-04-17 07:01 | 47.16630 | -1.97881 | 5219 ft | 242 kts | 295° |
| 2026-04-17 07:02 | 47.17380 | -2.00108 | 5009 ft | 242 kts | 294° |
| 2026-04-17 07:02 | 47.18124 | -2.02331 | 4790 ft | 242 kts | 295° |
| 2026-04-17 07:02 | 47.18874 | -2.04551 | 4575 ft | 242 kts | 295° |
| 2026-04-17 07:02 | 47.19616 | -2.06779 | 4360 ft | 242 kts | 294° |
| 2026-04-17 07:03 | 47.20347 | -2.08980 | 4150 ft | 242 kts | 295° |
| 2026-04-17 07:03 | 47.21091 | -2.11192 | 3936 ft | 241 kts | 295° |
| 2026-04-17 07:03 | 47.21830 | -2.13409 | 3723 ft | 241 kts | 295° |
| 2026-04-17 07:03 | 47.22566 | -2.15620 | 3513 ft | 240 kts | 295° |
| 2026-04-17 07:04 | 47.23305 | -2.17828 | 3299 ft | 240 kts | 296° |
| 2026-04-17 07:04 | 47.24048 | -2.20041 | 2971 ft | 239 kts | 296° |
| 2026-04-17 07:04 | 47.24762 | -2.22137 | 2450 ft | 227 kts | 296° |
| 2026-04-17 07:04 | 47.25421 | -2.24202 | 1983 ft | 218 kts | 296° |
| 2026-04-17 07:05 | 47.26044 | -2.26157 | 1790 ft | 208 kts | 296° |
| 2026-04-17 07:05 | 47.26676 | -2.28086 | 1609 ft | 209 kts | 297° |
| 2026-04-17 07:05 | 47.27326 | -2.30011 | 1598 ft | 212 kts | 297° |
| 2026-04-17 07:05 | 47.27991 | -2.31981 | 1598 ft | 215 kts | 298° |
| 2026-04-17 07:06 | 47.28687 | -2.33819 | 1538 ft | 195 kts | 298° |
| 2026-04-17 07:06 | 47.29394 | -2.35419 | 1599 ft | 180 kts | 321° |
| 2026-04-17 07:06 | 47.30569 | -2.35835 | 1564 ft | 176 kts | 13° |
| 2026-04-17 07:06 | 47.31558 | -2.34891 | 1537 ft | 173 kts | 50° |
| 2026-04-17 07:07 | 47.32000 | -2.33327 | 1566 ft | 168 kts | 91° |
| 2026-04-17 07:07 | 47.31505 | -2.31886 | 1266 ft | 159 kts | 149° |
| 2026-04-17 07:07 | 47.30502 | -2.31887 | 1031 ft | 145 kts | 213° |
| 2026-04-17 07:07 | 47.30043 | -2.33074 | 932 ft | 135 kts | 269° |
| 2026-04-17 07:08 | 47.30292 | -2.34298 | 962 ft | 122 kts | 292° |
| 2026-04-17 07:08 | 47.30560 | -2.35424 | 1031 ft | 110 kts | 290° |
| 2026-04-17 07:08 | 47.30788 | -2.36374 | 1078 ft | 93 kts | 285° |
| 2026-04-17 07:08 | 47.30881 | -2.37321 | 1031 ft | 99 kts | 261° |
| 2026-04-17 07:09 | 47.30480 | -2.38115 | 998 ft | 96 kts | 205° |
| 2026-04-17 07:09 | 47.29854 | -2.38147 | 866 ft | 93 kts | 150° |
| 2026-04-17 07:09 | 47.29465 | -2.37406 | 732 ft | 94 kts | 120° |
| 2026-04-17 07:09 | 47.29221 | -2.36556 | 452 ft | 84 kts | 108° |
| 2026-04-17 07:10 | 47.29056 | -2.35751 | 244 ft | 86 kts | 107° |
| 2026-04-17 07:10 | 47.28888 | -2.34944 | 107 ft | 71 kts | 108° |
| 2026-04-17 07:10 | 47.28786 | -2.34449 | 103 ft | 42 kts | 106° |
| 2026-04-17 07:10 | 47.28740 | -2.34226 | 99 ft | 17 kts | 110° |
| 2026-04-17 07:11 | 47.28684 | -2.34179 | 100 ft | 7 kts | 198° |
| 2026-04-17 07:11 | 47.28666 | -2.34291 | 100 ft | 16 kts | 277° |
| 2026-04-17 07:11 | 47.28701 | -2.34482 | 102 ft | 22 kts | 287° |
| 2026-04-17 07:11 | 47.28738 | -2.34664 | 103 ft | 12 kts | 286° |
| 2026-04-17 07:12 | 47.28764 | -2.34792 | 104 ft | 16 kts | 288° |
| 2026-04-17 07:12 | 47.28795 | -2.34941 | 105 ft | 16 kts | 286° |
| 2026-04-17 07:12 | 47.28830 | -2.35119 | 106 ft | 16 kts | 288° |
| 2026-04-17 07:12 | 47.28852 | -2.35247 | 107 ft | 13 kts | 262° |
| 2026-04-17 07:13 | 47.28807 | -2.35296 | 107 ft | 6 kts | 195° |
| 2026-04-17 07:13 | 47.28782 | -2.35274 | 106 ft | 0 kts | 88° |